Time;durP1;ratioP1;P1;durP2;ratioP2;P2;SDS_P1;SDS_P2;PMS_P1;PMS_P2;Temp;Humidity;BMP_temperature;BMP_pressure;BME280_temperature;BME280_humidity;BME280_pressure;Samples;Min_cycle;Max_cycle;Signal;HPM_P1;HPM_P2
2022/12/31 00:00:37;;;;;;;4.13;1.70;;;10.40;99.90;;;9.50;100.00;97109.22;5037285;28;20415;-74
2022/12/31 00:03:04;;;;;;;2.13;1.23;;;10.50;99.90;;;9.55;100.00;97103.16;5032447;28;20486;-75
2022/12/31 00:05:32;;;;;;;5.43;1.37;;;10.50;99.90;;;9.59;100.00;97107.72;5036567;28;20399;-76
2022/12/31 00:07:58;;;;;;;2.70;1.30;;;10.50;99.90;;;9.55;100.00;97111.09;5034091;28;20737;-76
2022/12/31 00:10:24;;;;;;;1.75;1.50;;;10.50;99.90;;;9.56;100.00;97112.69;5029627;28;21050;-76
2022/12/31 00:12:50;;;;;;;4.05;1.60;;;10.50;99.90;;;9.50;100.00;97114.50;5028149;28;20746;-76
2022/12/31 00:15:16;;;;;;;1.70;1.30;;;10.50;99.90;;;9.48;100.00;97118.41;5029257;28;20411;-76
2022/12/31 00:17:42;;;;;;;1.95;1.30;;;10.40;99.90;;;9.47;100.00;97117.63;5032154;28;20426;-76
2022/12/31 00:20:09;;;;;;;2.70;1.40;;;10.40;99.90;;;9.47;100.00;97114.22;5030346;28;20403;-76
2022/12/31 00:22:36;;;;;;;1.77;1.15;;;10.40;99.90;;;9.47;100.00;97119.50;5031477;28;20904;-76
2022/12/31 00:25:03;;;;;;;2.97;1.30;;;10.40;99.90;;;9.39;100.00;97119.94;5031830;28;20486;-76
2022/12/31 00:27:30;;;;;;;2.70;1.40;;;10.30;99.90;;;9.52;100.00;97116.88;5031776;28;20500;-76
2022/12/31 00:29:56;;;;;;;2.70;1.30;;;10.30;99.90;;;9.67;100.00;97133.69;5031499;28;20525;-75
2022/12/31 00:32:23;;;;;;;1.63;1.20;;;10.50;99.90;;;9.54;100.00;97138.59;5031318;28;20415;-76
2022/12/31 00:34:49;;;;;;;1.98;1.30;;;10.40;99.90;;;9.51;100.00;97141.72;5031300;28;20498;-76
2022/12/31 00:37:15;;;;;;;2.55;1.15;;;10.40;99.90;;;9.51;100.00;97152.28;5031630;28;20517;-76
2022/12/31 00:39:42;;;;;;;1.90;1.20;;;10.40;99.90;;;9.52;100.00;97145.94;5031711;28;20414;-76
2022/12/31 00:42:08;;;;;;;1.30;1.20;;;10.50;99.90;;;9.53;100.00;97140.44;5031052;28;20406;-75
2022/12/31 00:44:33;;;;;;;2.72;1.30;;;10.40;99.90;;;9.50;100.00;97148.84;5028827;28;20780;-76
2022/12/31 00:46:59;;;;;;;1.60;1.40;;;10.40;99.90;;;9.70;100.00;97145.56;5031456;28;20399;-76
2022/12/31 00:49:25;;;;;;;2.50;1.10;;;10.50;99.90;;;9.84;100.00;97154.72;5031594;28;20481;-75
2022/12/31 00:51:51;;;;;;;2.60;1.38;;;10.80;99.90;;;9.84;100.00;97148.63;5030878;28;20407;-74
2022/12/31 00:54:17;;;;;;;3.65;1.23;;;10.80;99.90;;;10.13;100.00;97157.84;5031030;28;20769;-74
2022/12/31 00:56:44;;;;;;;2.65;1.20;;;10.90;99.90;;;10.14;100.00;97162.09;5031405;28;21208;-74
2022/12/31 00:59:10;;;;;;;1.30;1.10;;;11.00;99.90;;;10.30;100.00;97152.44;5030718;28;20413;-75
2022/12/31 01:01:38;;;;;;;1.70;1.38;;;11.10;99.90;;;10.18;100.00;97168.50;5029752;28;20772;-75
2022/12/31 01:04:07;;;;;;;3.63;1.60;;;11.10;99.90;;;10.40;100.00;97163.88;5030031;28;20494;-75
2022/12/31 01:06:34;;;;;;;1.50;1.13;;;11.20;99.90;;;10.26;100.00;97170.66;5031054;28;20537;-74
2022/12/31 01:09:00;;;;;;;2.20;1.40;;;11.20;99.90;;;10.12;100.00;97169.47;5031164;28;20462;-74
2022/12/31 01:11:30;;;;;;;3.30;1.25;;;11.00;99.90;;;10.07;100.00;97164.94;5029336;28;20640;-74
2022/12/31 01:13:59;;;;;;;1.65;1.30;;;11.00;99.90;;;10.27;100.00;97171.47;5030315;28;20399;-74
2022/12/31 01:16:29;;;;;;;1.77;1.27;;;11.10;99.90;;;10.18;100.00;97175.63;5030950;28;20423;-74
2022/12/31 01:18:58;;;;;;;2.53;1.20;;;11.10;99.90;;;10.16;100.00;97188.25;5030920;28;20407;-76
2022/12/31 01:21:24;;;;;;;2.80;1.30;;;11.00;99.90;;;10.12;100.00;97184.53;5030345;28;20403;-75
2022/12/31 01:23:50;;;;;;;3.13;1.27;;;11.00;99.90;;;10.10;100.00;97196.16;5029080;28;20442;-75
2022/12/31 01:26:17;;;;;;;2.40;1.20;;;11.00;99.90;;;10.00;100.00;97200.56;5030817;28;20406;-75
2022/12/31 01:28:44;;;;;;;2.85;1.30;;;10.90;99.90;;;9.95;100.00;97198.69;5031284;28;20884;-75
2022/12/31 01:31:14;;;;;;;1.57;1.30;;;10.90;99.90;;;10.14;100.00;97220.28;5031431;28;20434;-75
2022/12/31 01:33:41;;;;;;;2.80;1.50;;;11.00;99.90;;;10.08;100.00;97214.13;5030746;28;20395;-75
2022/12/31 01:36:11;;;;;;;2.23;1.23;;;11.00;99.90;;;10.23;100.00;97217.97;5030789;28;20403;-75
2022/12/31 01:38:39;;;;;;;5.57;1.30;;;11.10;99.90;;;10.46;100.00;97231.66;5031678;28;20414;-75
2022/12/31 01:41:05;;;;;;;1.45;1.27;;;11.20;99.90;;;10.38;100.00;97226.84;5031512;28;20427;-75
2022/12/31 01:43:53;;;;;;;1.70;1.30;;;11.30;99.90;;;10.32;100.00;97221.75;5030590;28;20453;-75
2022/12/31 01:46:28;;;;;;;2.50;1.30;;;11.20;99.90;;;10.34;100.00;97223.13;5030423;28;20960;-75
2022/12/31 01:48:59;;;;;;;3.08;1.20;;;11.20;99.90;;;10.25;100.00;97211.41;5029108;28;20415;-75
2022/12/31 01:51:29;;;;;;;1.42;1.30;;;11.20;99.90;;;10.23;100.00;97226.72;5029925;28;20399;-75
2022/12/31 01:53:57;;;;;;;4.05;1.30;;;11.10;99.90;;;10.10;100.00;97227.09;5028504;28;20784;-75
2022/12/31 01:56:24;;;;;;;2.05;1.13;;;11.00;99.90;;;10.12;100.00;97216.28;5028737;28;20849;-75
2022/12/31 01:58:54;;;;;;;1.88;1.20;;;11.00;99.90;;;10.03;100.00;97235.25;5029014;28;20413;-75
2022/12/31 02:01:27;;;;;;;2.90;1.35;;;11.00;99.90;;;9.98;100.00;97234.41;5029832;28;20757;-75
2022/12/31 02:03:55;;;;;;;3.15;1.40;;;10.90;99.90;;;9.97;100.00;97235.47;5012073;28;20413;-75
2022/12/31 02:06:27;;;;;;;2.00;1.30;;;10.90;99.90;;;9.95;100.00;97229.63;5030139;28;20757;-75
2022/12/31 02:08:54;;;;;;;3.38;1.38;;;10.80;99.90;;;10.08;100.00;97219.41;5030125;28;20427;-75
2022/12/31 02:11:26;;;;;;;4.03;1.30;;;11.00;99.90;;;9.96;100.00;97223.28;5029752;28;20468;-75
2022/12/31 02:13:55;;;;;;;2.72;1.33;;;10.90;99.90;;;10.13;100.00;97225.81;5029526;28;20414;-75
2022/12/31 02:16:33;;;;;;;1.88;1.30;;;10.90;99.90;;;10.02;100.00;97231.00;5029899;28;20438;-75
2022/12/31 02:19:24;;;;;;;4.60;1.20;;;10.90;99.90;;;9.95;100.00;97230.41;5030018;28;20824;-75
2022/12/31 02:22:00;;;;;;;2.10;1.25;;;10.90;99.90;;;9.91;100.00;97244.41;5029379;28;20417;-75
2022/12/31 02:25:03;;;;;;;3.72;1.38;;;10.80;99.90;;;9.95;100.00;97234.91;5029637;28;20480;-75
2022/12/31 02:27:48;;;;;;;2.10;1.17;;;10.80;99.90;;;9.97;100.00;97243.38;5028531;28;20426;-75
2022/12/31 02:30:18;;;;;;;2.83;1.35;;;10.90;99.90;;;10.04;100.00;97243.97;5029864;28;20399;-75
2022/12/31 02:32:57;;;;;;;1.65;1.20;;;10.90;99.90;;;10.05;100.00;97237.66;5027677;28;20784;-75
2022/12/31 02:35:29;;;;;;;2.10;1.40;;;10.90;99.90;;;9.98;100.00;97237.84;5029818;28;20407;-75
2022/12/31 02:38:03;;;;;;;2.10;1.35;;;10.90;99.90;;;10.03;100.00;97245.84;5029768;28;20426;-75
2022/12/31 02:40:32;;;;;;;1.50;1.33;;;10.90;99.90;;;9.95;100.00;97256.06;5029983;28;20403;-75
2022/12/31 02:42:58;;;;;;;2.90;1.40;;;10.80;99.90;;;10.00;100.00;97256.91;5028770;28;20435;-74
2022/12/31 02:45:33;;;;;;;3.43;1.40;;;10.90;99.90;;;9.96;100.00;97255.00;5029563;28;20926;-74
2022/12/31 02:48:18;;;;;;;2.60;1.20;;;10.90;99.90;;;10.01;100.00;97242.63;5029858;28;20771;-74
2022/12/31 02:50:56;;;;;;;2.13;1.25;;;10.90;99.90;;;10.02;100.00;97243.44;5029776;28;20438;-74
2022/12/31 02:53:59;;;;;;;2.92;1.20;;;10.90;99.90;;;10.03;100.00;97245.84;5028796;28;20424;-74
2022/12/31 02:56:34;;;;;;;1.73;1.23;;;10.90;99.90;;;10.09;100.00;97254.59;5029525;28;20413;-74
2022/12/31 03:02:13;;;;;;;3.13;1.30;;;11.00;99.90;;;10.31;100.00;97234.19;5029004;28;20761;-73
2022/12/31 03:04:40;;;;;;;2.58;1.50;;;11.20;99.90;;;10.43;100.00;97239.31;5028730;28;20427;-74
2022/12/31 03:07:10;;;;;;;4.35;1.38;;;11.30;99.90;;;10.46;100.00;97247.53;5029711;28;20962;-73
2022/12/31 03:09:37;;;;;;;2.60;1.10;;;11.30;99.90;;;10.52;100.00;97247.59;5033475;28;20439;-73
2022/12/31 03:14:50;;;;;;;2.33;1.50;;;11.30;99.90;;;10.35;100.00;97229.19;5032964;28;20397;-74
2022/12/31 03:17:17;;;;;;;5.22;1.50;;;11.20;99.90;;;10.38;100.00;97236.63;5033125;28;20952;-74
2022/12/31 03:22:28;;;;;;;2.63;1.40;;;11.30;99.90;;;10.55;100.00;97236.47;5032589;28;20399;-73
2022/12/31 03:27:43;;;;;;;2.75;1.40;;;11.40;99.90;;;10.67;100.00;97245.06;5033121;28;20934;-75
2022/12/31 03:30:11;;;;;;;4.72;1.42;;;11.50;99.90;;;10.51;100.00;97246.78;5033154;28;20410;-73
2022/12/31 03:32:38;;;;;;;2.55;1.30;;;11.40;99.90;;;10.53;100.00;97244.66;5032522;28;20410;-73
2022/12/31 03:35:06;;;;;;;1.70;1.20;;;11.40;99.90;;;10.65;100.00;97255.09;5032828;28;20777;-74
2022/12/31 03:37:32;;;;;;;3.50;1.40;;;11.50;99.90;;;10.71;100.00;97262.81;5015211;28;20426;-74
2022/12/31 03:39:58;;;;;;;2.50;1.10;;;11.50;99.90;;;10.81;100.00;97272.69;5032081;28;20415;-74
2022/12/31 03:42:23;;;;;;;2.63;1.40;;;11.60;99.90;;;10.81;100.00;97262.09;5031896;28;20421;-74
2022/12/31 03:44:49;;;;;;;2.00;1.20;;;11.70;99.90;;;10.91;100.00;97274.56;5052460;22;20461;-75
2022/12/31 03:47:15;;;;;;;1.27;1.17;;;11.70;99.90;;;10.97;100.00;97255.84;5052444;28;20437;-75
2022/12/31 03:49:42;;;;;;;2.17;1.10;;;11.80;99.90;;;10.94;100.00;97269.59;5052323;28;20437;-75
2022/12/31 03:52:08;;;;;;;1.00;0.90;;;11.80;99.90;;;11.01;100.00;97275.44;5050529;28;20409;-75
2022/12/31 03:54:34;;;;;;;1.75;1.20;;;11.90;99.90;;;11.05;100.00;97273.09;5052075;28;20458;-76
2022/12/31 03:57:00;;;;;;;1.83;1.20;;;11.80;99.90;;;11.18;100.00;97280.56;5051043;28;20429;-76
2022/12/31 03:59:26;;;;;;;1.90;1.10;;;11.90;99.90;;;11.11;100.00;97269.41;5052471;28;20440;-76
2022/12/31 04:01:52;;;;;;;4.38;1.10;;;11.90;99.90;;;11.26;100.00;97277.44;5051852;28;20408;-76
2022/12/31 04:04:18;;;;;;;3.00;1.17;;;12.00;99.90;;;11.16;100.00;97280.84;5051940;28;20436;-76
2022/12/31 04:06:45;;;;;;;1.27;1.10;;;12.00;99.90;;;11.23;100.00;97275.28;5052246;28;20493;-76
2022/12/31 04:09:11;;;;;;;3.47;1.20;;;12.00;99.90;;;11.21;100.00;97277.41;5052215;28;20463;-76
2022/12/31 04:11:37;;;;;;;1.60;1.30;;;12.00;99.90;;;11.22;100.00;97271.03;5051605;28;20867;-76
2022/12/31 04:14:03;;;;;;;1.00;0.90;;;12.00;99.90;;;11.22;100.00;97281.66;5051961;28;20393;-76
2022/12/31 04:16:29;;;;;;;2.85;1.10;;;12.10;99.90;;;11.26;100.00;97280.09;5051937;28;20862;-76
2022/12/31 04:18:55;;;;;;;3.10;1.13;;;12.10;99.90;;;11.41;100.00;97279.38;5051120;28;20437;-76
2022/12/31 04:21:21;;;;;;;1.63;1.17;;;12.30;99.90;;;11.42;100.00;97288.91;5051211;28;20492;-76
2022/12/31 04:23:48;;;;;;;1.00;0.90;;;12.30;99.90;;;11.37;100.00;97284.38;5051592;28;20828;-76
2022/12/31 04:26:14;;;;;;;1.98;1.10;;;12.20;99.90;;;11.58;100.00;97282.59;5051760;28;20500;-76
2022/12/31 04:28:40;;;;;;;1.93;0.90;;;12.30;99.90;;;11.38;100.00;97274.56;5051987;28;20427;-76
2022/12/31 04:31:06;;;;;;;1.17;1.00;;;12.20;99.90;;;11.41;100.00;97280.16;5051870;28;20411;-76
2022/12/31 04:33:32;;;;;;;1.23;1.10;;;12.20;99.90;;;11.51;100.00;97276.75;5050780;28;20401;-76
2022/12/31 04:36:00;;;;;;;1.13;0.98;;;12.30;99.90;;;11.40;100.00;97291.03;5051764;28;20498;-75
2022/12/31 04:38:28;;;;;;;2.92;1.20;;;12.20;99.90;;;11.43;100.00;97278.03;5051692;28;20543;-76
2022/12/31 04:43:40;;;;;;;1.55;1.02;;;12.30;99.90;;;11.51;100.00;97296.09;5051429;28;20425;-76
2022/12/31 04:46:06;;;;;;;2.25;1.02;;;12.40;99.90;;;11.45;100.00;97305.09;5051390;28;20417;-76
2022/12/31 04:48:32;;;;;;;1.15;0.85;;;12.30;99.90;;;11.51;100.00;97298.75;5051511;28;20670;-76
2022/12/31 04:50:58;;;;;;;1.33;1.13;;;12.40;99.90;;;11.29;100.00;97302.59;5051390;28;20444;-76
2022/12/31 04:53:24;;;;;;;1.20;1.10;;;12.20;99.90;;;11.24;100.00;97298.91;5050407;28;20408;-76
2022/12/31 04:55:50;;;;;;;1.83;1.23;;;12.00;99.90;;;11.44;100.00;97302.69;5050091;28;20444;-76
2022/12/31 04:58:18;;;;;;;2.40;1.00;;;12.10;99.90;;;11.21;100.00;97298.59;5051410;28;20449;-76
2022/12/31 05:00:48;;;;;;;1.30;1.00;;;12.00;99.90;;;11.32;100.00;97308.22;5051291;28;20409;-76
2022/12/31 05:03:14;;;;;;;1.10;1.00;;;12.10;99.90;;;11.24;100.00;97309.50;5049036;28;20786;-76
2022/12/31 05:05:43;;;;;;;3.35;1.00;;;12.10;99.90;;;11.57;100.00;97308.34;5051122;28;20893;-76
2022/12/31 05:08:10;;;;;;;0.87;0.87;;;12.20;99.90;;;11.42;100.00;97308.28;5051142;28;20412;-76
2022/12/31 05:10:40;;;;;;;1.17;1.08;;;12.20;99.90;;;11.36;100.00;97313.78;5050978;28;20415;-76
2022/12/31 05:13:06;;;;;;;2.93;0.80;;;12.30;99.90;;;11.27;100.00;97308.19;5050365;28;20401;-77
2022/12/31 05:15:33;;;;;;;2.53;1.10;;;12.20;99.90;;;11.23;100.00;97325.63;5050938;28;20428;-76
2022/12/31 05:17:59;;;;;;;1.83;0.90;;;12.10;99.90;;;11.37;100.00;97324.13;5051067;28;20940;-76
2022/12/31 05:20:25;;;;;;;2.27;1.13;;;12.10;99.90;;;11.33;100.00;97331.00;5070365;28;20400;-76
2022/12/31 05:22:51;;;;;;;3.55;1.10;;;12.20;99.90;;;11.42;100.00;97328.66;5070013;28;20881;-76
2022/12/31 05:25:16;;;;;;;1.17;1.08;;;12.30;99.90;;;11.38;100.00;97336.31;5072865;28;20403;-76
2022/12/31 05:27:42;;;;;;;1.88;0.88;;;12.30;99.90;;;11.41;100.00;97319.13;5070750;28;20475;-77
2022/12/31 05:30:10;;;;;;;1.83;0.90;;;12.30;99.90;;;11.29;100.00;97319.31;5070339;28;20873;-75
2022/12/31 05:32:38;;;;;;;1.60;1.10;;;12.20;99.90;;;11.32;100.00;97324.09;5068546;28;20408;-76
2022/12/31 05:35:06;;;;;;;1.83;1.03;;;12.20;99.90;;;11.35;100.00;97333.41;5070596;28;20494;-76
2022/12/31 05:37:32;;;;;;;1.10;0.98;;;12.20;99.90;;;11.26;100.00;97333.09;5070335;28;20466;-76
2022/12/31 05:39:58;;;;;;;2.00;1.10;;;12.10;99.90;;;11.23;100.00;97325.63;5070482;28;20407;-76
2022/12/31 05:42:25;;;;;;;1.60;1.00;;;12.10;99.90;;;11.13;100.00;97329.00;5069873;28;20404;-76
2022/12/31 05:44:51;;;;;;;1.10;1.00;;;12.00;99.90;;;11.15;100.00;97329.56;5069901;28;20461;-77
2022/12/31 05:47:17;;;;;;;1.98;1.10;;;12.00;99.90;;;11.23;100.00;97323.78;5070401;28;20400;-76
2022/12/31 05:49:44;;;;;;;1.77;1.10;;;12.10;99.90;;;11.21;100.00;97338.34;5070356;28;20427;-76
2022/12/31 05:52:10;;;;;;;2.60;1.20;;;12.10;99.90;;;11.23;100.00;97345.00;5070028;28;20411;-76
2022/12/31 05:54:36;;;;;;;1.20;1.10;;;12.10;99.90;;;11.17;100.00;97342.56;5069982;28;20400;-76
2022/12/31 05:57:02;;;;;;;1.55;1.02;;;12.00;99.90;;;11.02;100.00;97348.56;5070318;28;20549;-76
2022/12/31 05:59:28;;;;;;;3.40;1.27;;;11.90;99.90;;;10.99;100.00;97369.44;5070331;28;20484;-76
2022/12/31 06:01:54;;;;;;;1.20;1.10;;;12.00;99.90;;;11.07;100.00;97359.19;5069553;28;20406;-76
2022/12/31 06:04:20;;;;;;;1.40;1.30;;;12.00;99.90;;;11.06;100.00;97357.59;5069755;28;20404;-76
2022/12/31 06:06:48;;;;;;;1.13;1.02;;;12.00;99.90;;;11.14;100.00;97372.22;5070157;28;20413;-76
2022/12/31 06:09:15;;;;;;;3.28;1.00;;;12.20;99.90;;;11.24;100.00;97374.94;5070254;28;20938;-76
2022/12/31 06:11:40;;;;;;;2.75;1.00;;;12.20;99.90;;;11.36;100.00;97387.97;5069565;28;20439;-76
2022/12/31 06:14:07;;;;;;;1.90;1.15;;;12.20;99.90;;;11.27;100.00;97392.19;5069767;28;20598;-76
2022/12/31 06:16:33;;;;;;;1.38;1.00;;;12.10;99.90;;;11.26;100.00;97394.03;5070058;28;20804;-76
2022/12/31 06:18:59;;;;;;;2.90;1.10;;;12.10;99.90;;;11.34;100.00;97390.91;5070048;28;20392;-76
2022/12/31 06:21:25;;;;;;;1.90;1.23;;;12.30;99.90;;;11.32;100.00;97397.50;5069390;28;20402;-76
2022/12/31 06:23:52;;;;;;;0.98;0.95;;;12.30;99.90;;;11.30;100.00;97387.16;5069582;28;20408;-77
2022/12/31 06:26:18;;;;;;;2.30;1.27;;;12.30;99.90;;;11.27;100.00;97389.53;5069912;28;20499;-76
2022/12/31 06:28:44;;;;;;;1.75;1.20;;;12.20;99.90;;;11.27;100.00;97400.94;5069945;28;20395;-76
2022/12/31 06:31:12;;;;;;;1.10;1.00;;;12.20;99.90;;;11.24;100.00;97396.13;5069945;28;20392;-76
2022/12/31 06:33:39;;;;;;;1.95;1.05;;;12.20;99.90;;;11.21;100.00;97399.28;5069406;28;20490;-76
2022/12/31 06:36:08;;;;;;;2.67;1.00;;;12.10;99.90;;;11.23;100.00;97397.97;5069417;28;20827;-76
2022/12/31 06:38:39;;;;;;;1.20;1.10;;;12.20;99.90;;;11.21;100.00;97415.97;5069651;28;20426;-76
2022/12/31 06:41:09;;;;;;;2.45;1.00;;;12.10;99.90;;;11.22;100.00;97420.22;5068614;28;20408;-76
2022/12/31 06:43:35;;;;;;;1.10;0.90;;;12.10;99.90;;;11.22;100.00;97406.97;5070161;28;20484;-76
2022/12/31 06:46:02;;;;;;;2.70;1.00;;;12.10;99.90;;;11.13;100.00;97405.84;5073479;28;20571;-76
2022/12/31 06:48:28;;;;;;;2.87;1.10;;;12.00;99.90;;;11.18;100.00;97407.75;5073777;28;20545;-76
2022/12/31 06:50:54;;;;;;;1.30;1.20;;;12.10;99.90;;;11.22;100.00;97408.81;5073897;28;20453;-76
2022/12/31 06:53:20;;;;;;;1.80;1.08;;;12.10;99.90;;;11.15;100.00;97398.44;5072774;28;20798;-76
2022/12/31 06:55:47;;;;;;;1.90;1.23;;;12.00;99.90;;;11.05;100.00;97397.59;5073754;28;20403;-76
2022/12/31 06:58:16;;;;;;;1.17;1.00;;;12.00;99.90;;;11.17;100.00;97387.59;5072276;28;20469;-76
2022/12/31 07:00:54;;;;;;;1.58;1.20;;;12.00;99.90;;;11.14;100.00;97380.94;5073529;28;20407;-76
2022/12/31 07:03:34;;;;;;;1.63;1.10;;;12.00;99.90;;;11.14;100.00;97380.16;5072505;28;20395;-76
2022/12/31 07:06:08;;;;;;;1.70;1.00;;;12.10;99.90;;;11.15;100.00;97385.19;5058663;28;20486;-76
2022/12/31 07:08:48;;;;;;;1.20;1.10;;;12.10;99.90;;;11.07;100.00;97392.81;5053360;28;20977;-76
2022/12/31 07:11:20;;;;;;;1.88;1.02;;;12.00;99.90;;;11.01;100.00;97396.47;5052835;28;20433;-76
2022/12/31 07:14:00;;;;;;;1.33;1.05;;;11.90;99.90;;;10.93;100.00;97399.59;5053015;28;20923;-76
2022/12/31 07:16:50;;;;;;;0.98;0.90;;;11.80;99.90;;;10.93;100.00;97397.75;5053310;28;20397;-75
2022/12/31 07:19:30;;;;;;;1.58;1.15;;;11.80;99.90;;;10.91;100.00;97402.50;5047805;28;20428;-76
2022/12/31 07:21:58;;;;;;;2.40;1.27;;;11.80;99.90;;;11.01;100.00;97405.22;5053084;28;20887;-76
2022/12/31 07:24:25;;;;;;;1.20;1.05;;;11.80;99.90;;;11.00;100.00;97410.78;5055136;28;20428;-76
2022/12/31 07:27:11;;;;;;;2.33;1.08;;;11.90;99.90;;;10.95;100.00;97416.03;5053279;28;20458;-76
2022/12/31 07:30:00;;;;;;;1.10;1.00;;;11.80;99.90;;;10.96;100.00;97426.38;5051713;28;20879;-76
2022/12/31 07:32:58;;;;;;;1.33;1.00;;;11.80;99.90;;;10.97;100.00;97417.41;5052412;28;20398;-76
2022/12/31 07:35:37;;;;;;;1.08;0.98;;;11.80;99.90;;;11.02;100.00;97417.44;5052805;28;20437;-76
2022/12/31 07:38:17;;;;;;;1.30;1.10;;;11.90;99.90;;;11.02;100.00;97425.38;5052793;28;20965;-76
2022/12/31 07:40:59;;;;;;;1.80;1.20;;;11.90;99.90;;;11.04;100.00;97425.13;5053015;28;20865;-76
2022/12/31 07:43:34;;;;;;;1.67;1.20;;;11.90;99.90;;;11.17;100.00;97427.34;5052057;28;20446;-74
2022/12/31 07:46:12;;;;;;;1.20;1.10;;;12.00;99.90;;;11.26;100.00;97441.72;5052603;28;21032;-76
2022/12/31 07:48:38;;;;;;;2.45;1.02;;;12.10;99.90;;;11.48;100.00;97431.81;5052815;28;20587;-76
2022/12/31 07:51:08;;;;;;;2.50;1.20;;;12.30;99.90;;;11.46;100.00;97430.47;5052701;28;20878;-76
2022/12/31 07:53:34;;;;;;;1.83;1.20;;;12.30;99.90;;;11.45;100.00;97428.88;5051306;28;20409;-75
2022/12/31 07:56:07;;;;;;;2.80;0.95;;;12.30;99.90;;;11.47;100.00;97432.06;5052514;28;20401;-76
2022/12/31 07:58:57;;;;;;;1.70;0.90;;;12.30;99.90;;;11.50;100.00;97431.56;5052630;28;20467;-76
2022/12/31 08:01:38;;;;;;;2.70;0.93;;;12.30;99.90;;;11.45;100.00;97434.97;5051996;28;20830;-76
2022/12/31 08:04:14;;;;;;;1.10;1.00;;;12.30;99.90;;;11.50;100.00;97434.22;5051027;28;20413;-75
2022/12/31 08:06:50;;;;;;;2.40;0.98;;;12.30;99.90;;;11.52;100.00;97442.69;5051304;28;20409;-76
2022/12/31 08:09:32;;;;;;;2.15;1.05;;;12.40;99.90;;;11.58;100.00;97439.81;5065930;28;20409;-76
2022/12/31 08:12:00;;;;;;;1.73;0.88;;;12.40;99.90;;;11.61;100.00;97447.25;5050749;28;20759;-75
2022/12/31 08:14:27;;;;;;;2.33;1.08;;;12.50;99.90;;;11.97;100.00;97458.09;5051814;28;20409;-75
2022/12/31 08:16:56;;;;;;;1.52;1.10;;;12.70;99.90;;;11.90;100.00;97452.22;5052007;28;20401;-76
2022/12/31 08:19:26;;;;;;;1.10;1.00;;;12.80;99.90;;;12.04;100.00;97456.00;5051663;28;20492;-76
2022/12/31 08:22:11;;;;;;;1.35;0.90;;;12.80;99.90;;;12.19;100.00;97453.41;5050034;28;20410;-76
2022/12/31 08:24:53;;;;;;;1.92;0.90;;;13.00;99.90;;;12.21;100.00;97467.25;5051594;28;20866;-76
2022/12/31 08:27:30;;;;;;;1.77;1.10;;;13.10;99.90;;;12.30;100.00;97457.72;5050784;28;20928;-76
2022/12/31 08:30:06;;;;;;;1.90;1.20;;;13.20;99.90;;;12.24;100.00;97455.31;5051989;28;20393;-75
2022/12/31 08:32:41;;;;;;;2.33;1.10;;;13.20;99.90;;;12.39;100.00;97453.53;5049785;28;20872;-78
2022/12/31 08:35:26;;;;;;;1.27;1.05;;;13.30;99.90;;;12.42;100.00;97444.22;5051848;28;20759;-78
2022/12/31 08:38:05;;;;;;;2.60;1.10;;;13.30;99.90;;;12.47;100.00;97452.22;5050462;28;20907;-78
2022/12/31 08:40:47;;;;;;;2.22;1.00;;;13.30;99.90;;;12.49;100.00;97450.06;5050683;28;20405;-77
2022/12/31 08:43:36;;;;;;;1.10;1.00;;;13.50;99.90;;;12.46;100.00;97450.63;5050731;28;20990;-77
2022/12/31 08:46:06;;;;;;;2.08;1.10;;;13.30;99.90;;;12.67;100.00;97462.88;5051805;28;20488;-77
2022/12/31 08:48:39;;;;;;;1.50;1.10;;;13.40;99.90;;;12.60;100.00;97466.84;5051487;28;20404;-77
2022/12/31 08:51:11;;;;;;;2.33;0.95;;;13.40;99.90;;;12.50;100.00;97470.25;5051778;28;20444;-77
2022/12/31 08:53:38;;;;;;;2.10;1.00;;;13.40;99.90;;;12.58;100.00;97484.88;5049376;28;20822;-75
2022/12/31 08:56:12;;;;;;;3.55;1.25;;;13.40;99.90;;;12.85;100.00;97490.03;5050022;28;20414;-76
2022/12/31 08:58:47;;;;;;;5.20;1.00;;;13.60;99.90;;;12.70;100.00;97493.44;5046554;28;20417;-77
2022/12/31 09:01:20;;;;;;;1.17;1.00;;;13.50;99.90;;;12.72;100.00;97493.97;5042721;28;20417;-77
2022/12/31 09:04:07;;;;;;;1.40;1.20;;;13.60;99.90;;;12.84;100.00;97502.50;5042589;28;20428;-75
2022/12/31 09:06:42;;;;;;;1.23;0.88;;;13.70;99.90;;;12.75;100.00;97482.81;5051786;28;20423;-76
2022/12/31 09:09:19;;;;;;;2.15;1.10;;;13.60;99.90;;;12.92;100.00;97487.91;5042457;28;20413;-77
2022/12/31 09:11:55;;;;;;;1.90;1.10;;;13.70;99.90;;;12.83;100.00;97482.31;5039331;28;20763;-76
2022/12/31 09:14:43;;;;;;;2.15;1.10;;;13.70;99.90;;;12.96;100.00;97488.97;5047470;28;20401;-76
2022/12/31 09:17:36;;;;;;;2.27;0.90;;;13.80;99.90;;;13.01;100.00;97500.41;5047838;28;20417;-76
2022/12/31 09:20:12;;;;;;;1.38;1.10;;;13.90;99.90;;;13.01;100.00;97503.06;5044539;28;20401;-76
2022/12/31 09:22:38;;;;;;;2.00;1.10;;;13.90;99.90;;;13.24;100.00;97498.31;5044717;28;20438;-76
2022/12/31 09:25:06;;;;;;;2.80;1.10;;;14.00;99.90;;;13.29;100.00;97493.03;5029739;28;20486;-76
2022/12/31 09:27:39;;;;;;;1.17;1.08;;;14.20;99.90;;;13.36;100.00;97498.88;5062732;28;21036;-76
2022/12/31 09:30:10;;;;;;;3.00;1.00;;;14.20;99.90;;;13.49;100.00;97498.34;5042084;28;20516;-76
2022/12/31 09:32:47;;;;;;;1.40;0.93;;;14.40;99.90;;;13.43;100.00;97497.56;5047574;28;20432;-76
2022/12/31 09:35:29;;;;;;;1.20;0.90;;;14.30;99.90;;;13.68;100.00;97485.31;5044186;28;20895;-76
2022/12/31 09:38:01;;;;;;;1.88;0.90;;;14.40;99.90;;;13.73;100.00;97495.94;5043237;28;20508;-76
2022/12/31 09:41:05;;;;;;;2.67;1.05;;;14.50;99.90;;;13.89;100.00;97500.16;5046860;28;20417;-76
2022/12/31 09:47:53;;;;;;;1.90;0.90;;;14.70;99.90;;;14.00;100.00;97516.91;5045939;28;20817;-77
2022/12/31 09:50:42;;;;;;;1.30;1.00;;;14.80;99.90;;;14.06;100.00;97510.53;5038330;28;20422;-77
2022/12/31 09:53:45;;;;;;;2.00;1.10;;;14.90;99.90;;;14.25;100.00;97508.84;5041918;28;20587;-77
2022/12/31 09:56:21;;;;;;;1.00;0.85;;;14.90;99.90;;;14.18;100.00;97500.38;5042552;28;20405;-77
2022/12/31 09:59:01;;;;;;;3.10;1.00;;;15.00;99.90;;;14.27;100.00;97509.41;5044867;28;20432;-77
2022/12/31 10:01:44;;;;;;;1.48;0.93;;;15.10;99.90;;;14.54;100.00;97499.19;5041837;28;20898;-77
2022/12/31 10:04:47;;;;;;;2.40;0.82;;;15.20;99.90;;;14.83;100.00;97504.63;5048687;28;20400;-78
2022/12/31 10:07:39;;;;;;;3.22;0.90;;;15.40;99.90;;;15.23;100.00;97506.25;5042184;28;20408;-78
2022/12/31 10:10:15;;;;;;;1.95;0.90;;;16.10;99.90;;;15.94;100.00;97502.22;5043143;28;20472;-77
2022/12/31 10:13:13;;;;;;;1.77;1.02;;;16.70;99.90;;;16.33;100.00;97489.50;5045387;28;20417;-78
2022/12/31 10:16:00;;;;;;;1.00;0.80;;;17.30;99.90;;;17.00;100.00;97492.94;5040939;28;20418;-78
2022/12/31 10:18:45;;;;;;;0.95;0.80;;;17.80;99.90;;;17.27;100.00;97492.28;5029124;28;20417;-77
2022/12/31 10:21:40;;;;;;;5.70;1.17;;;18.20;99.90;;;17.87;100.00;97484.34;5062568;28;20401;-78
2022/12/31 10:24:35;;;;;;;3.80;0.70;;;18.40;99.90;;;18.11;100.00;97476.94;5060226;28;20412;-77
2022/12/31 10:27:17;;;;;;;1.50;0.90;;;19.10;99.90;;;18.29;100.00;97491.31;5038153;28;20413;-78
2022/12/31 10:29:47;;;;;;;1.10;0.70;;;19.20;99.90;;;19.14;100.00;97485.28;5067319;28;20409;-78
2022/12/31 10:32:19;;;;;;;2.20;0.80;;;19.90;99.90;;;19.62;100.00;97483.56;5061772;28;20482;-78
2022/12/31 10:35:01;;;;;;;1.10;0.70;;;20.50;99.90;;;20.24;100.00;97483.56;5053228;28;20404;-77
2022/12/31 10:37:34;;;;;;;0.90;0.60;;;21.00;98.20;;;19.89;100.00;97482.63;5047050;28;20563;-79
2022/12/31 10:40:23;;;;;;;1.55;0.70;;;20.90;96.50;;;20.41;99.73;97482.88;5043653;28;20447;-79
2022/12/31 10:43:34;;;;;;;2.20;0.90;;;21.20;93.30;;;20.47;98.05;97476.25;5045426;28;20401;-78
2022/12/31 10:46:54;;;;;;;1.50;0.77;;;21.30;92.00;;;20.95;99.88;97468.09;5047408;28;20443;-77
2022/12/31 10:50:30;;;;;;;0.73;0.70;;;21.70;92.40;;;20.95;92.16;97468.09;5046595;28;20474;-77
2022/12/31 10:53:40;;;;;;;1.15;0.60;;;21.90;90.60;;;21.18;99.80;97468.78;4991774;28;20418;-78